Time;durP1;ratioP1;P1;durP2;ratioP2;P2;SDS_P1;SDS_P2;PMS_P1;PMS_P2;Temp;Humidity;BMP_temperature;BMP_pressure;BME280_temperature;BME280_humidity;BME280_pressure;Samples;Min_cycle;Max_cycle;Signal;HPM_P1;HPM_P2
2022/02/24 00:01:39;;;;;;;18.08;7.88;;;;;;;5.01;85.52;98569.59;4119265;28;20204;-88
2022/02/24 00:03:42;;;;;;;10.88;6.68;;;;;;;4.98;85.33;98567.13;4124070;28;20716;-88
2022/02/24 00:05:45;;;;;;;15.23;7.30;;;;;;;4.98;84.86;98574.88;4126987;28;20203;-88
2022/02/24 00:07:49;;;;;;;9.25;6.80;;;;;;;4.98;85.87;98569.72;4121258;28;20736;-87
2022/02/24 00:09:52;;;;;;;9.80;6.80;;;;;;;4.97;86.19;98568.03;4115208;28;20704;-89
2022/02/24 00:11:57;;;;;;;13.07;7.43;;;;;;;4.96;84.80;98577.53;4120199;28;20214;-88
2022/02/24 00:14:00;;;;;;;11.68;6.75;;;;;;;4.97;85.10;98575.78;4119538;28;20204;-87
2022/02/24 00:16:03;;;;;;;9.32;6.60;;;;;;;4.92;86.09;98565.63;4116846;28;20206;-87
2022/02/24 00:18:06;;;;;;;9.20;6.45;;;;;;;4.91;84.85;98571.66;4123173;28;20254;-88
2022/02/24 00:20:11;;;;;;;9.90;6.35;;;;;;;4.90;85.76;98566.56;4124626;28;20212;-86
2022/02/24 00:22:14;;;;;;;10.73;6.63;;;;;;;4.90;85.02;98567.41;4107758;28;20239;-88
2022/02/24 00:24:19;;;;;;;12.60;6.35;;;;;;;4.92;85.58;98569.94;4116579;28;20215;-87
2022/02/24 00:26:22;;;;;;;12.25;5.95;;;;;;;4.92;86.50;98570.78;4118399;28;23746;-87
2022/02/24 00:28:25;;;;;;;7.65;5.85;;;;;;;4.92;86.78;98564.78;4120662;28;20217;-87
2022/02/24 00:30:28;;;;;;;8.15;5.53;;;;;;;4.93;87.29;98563.84;4121126;28;20219;-88
2022/02/24 00:32:31;;;;;;;8.02;5.55;;;;;;;4.95;87.24;98559.50;4126387;28;20236;-88
2022/02/24 00:34:34;;;;;;;7.65;5.85;;;;;;;4.98;86.02;98549.03;4123101;28;20295;-88
2022/02/24 00:36:37;;;;;;;10.27;6.30;;;;;;;4.99;87.16;98556.72;4121892;28;20676;-88
2022/02/24 00:38:40;;;;;;;7.72;5.68;;;;;;;5.01;87.09;98551.50;4122359;28;20224;-87
2022/02/24 00:40:48;;;;;;;7.95;5.65;;;;;;;5.03;86.10;98547.94;4109930;28;20701;-88
2022/02/24 00:42:51;;;;;;;9.15;6.28;;;;;;;5.05;87.39;98553.03;4122224;28;20488;-88
2022/02/24 00:44:56;;;;;;;7.72;5.82;;;;;;;5.07;86.62;98551.28;4119217;28;20209;-87
2022/02/24 00:47:00;;;;;;;11.00;6.55;;;;;;;5.08;87.25;98550.34;4102343;28;20739;-89
2022/02/24 00:49:03;;;;;;;7.55;5.25;;;;;;;5.11;87.07;98550.22;4122001;28;20204;-86
2022/02/24 00:51:06;;;;;;;9.25;6.30;;;;;;;5.14;87.35;98546.63;4121905;28;20227;-86
2022/02/24 00:53:09;;;;;;;8.32;5.40;;;;;;;5.14;86.95;98549.22;4119340;28;20212;-88
2022/02/24 00:55:12;;;;;;;7.53;5.80;;;;;;;5.15;87.14;98557.78;4124771;28;20268;-86
2022/02/24 00:57:17;;;;;;;9.95;5.47;;;;;;;5.16;87.71;98549.97;4117619;28;20212;-88
2022/02/24 00:59:20;;;;;;;8.48;6.18;;;;;;;5.17;87.29;98536.16;4122857;28;20268;-88
2022/02/24 01:01:23;;;;;;;11.93;6.53;;;;;;;5.21;86.88;98536.88;4119139;28;20220;-85
2022/02/24 01:03:27;;;;;;;10.73;6.85;;;;;;;5.21;86.60;98535.13;4100268;28;20215;-88
2022/02/24 01:05:30;;;;;;;9.73;5.85;;;;;;;5.23;87.02;98532.47;4117792;28;20741;-89
2022/02/24 01:07:33;;;;;;;10.48;5.45;;;;;;;5.26;87.14;98529.78;4107860;28;20715;-88
2022/02/24 01:09:36;;;;;;;8.02;5.47;;;;;;;5.28;87.87;98533.97;4119441;28;20212;-88
2022/02/24 01:11:39;;;;;;;8.60;5.53;;;;;;;5.29;87.61;98538.25;4117742;28;20604;-88
2022/02/24 01:13:44;;;;;;;10.25;5.72;;;;;;;5.31;86.77;98549.38;4118951;28;20260;-88
2022/02/24 01:15:47;;;;;;;8.25;5.15;;;;;;;5.32;86.80;98534.69;4122914;28;20226;-83
2022/02/24 01:17:50;;;;;;;9.07;4.82;;;;;;;5.33;86.78;98534.63;4120763;28;20212;-83
2022/02/24 01:19:56;;;;;;;6.97;5.53;;;;;;;5.35;87.40;98538.00;4121955;28;20228;-86
2022/02/24 01:21:59;;;;;;;7.82;5.07;;;;;;;5.37;87.96;98538.78;4122803;28;20199;-85
2022/02/24 01:24:02;;;;;;;8.05;5.18;;;;;;;5.40;88.11;98538.66;4123796;28;20212;-86
2022/02/24 01:26:05;;;;;;;8.15;5.20;;;;;;;5.39;87.39;98529.22;4119331;28;20216;-86
2022/02/24 01:28:08;;;;;;;9.00;5.18;;;;;;;5.40;87.09;98528.31;4119570;28;20274;-88
2022/02/24 01:30:14;;;;;;;9.98;6.57;;;;;;;5.42;86.68;98528.25;4126029;28;20256;-88
2022/02/24 01:32:17;;;;;;;8.40;5.10;;;;;;;5.40;87.80;98532.66;4120252;28;20229;-87
2022/02/24 01:34:20;;;;;;;7.60;5.70;;;;;;;5.42;87.26;98530.84;4124637;28;20234;-88
2022/02/24 01:36:23;;;;;;;7.25;4.57;;;;;;;5.43;87.63;98528.19;4128219;28;20264;-87
2022/02/24 01:38:28;;;;;;;9.38;5.32;;;;;;;5.45;87.58;98533.31;4122599;28;20249;-88
2022/02/24 01:40:32;;;;;;;8.60;4.78;;;;;;;5.46;87.86;98534.97;4105235;28;20665;-85
2022/02/24 01:42:35;;;;;;;9.50;5.28;;;;;;;5.47;87.78;98526.31;4125318;28;20230;-88
2022/02/24 01:44:42;;;;;;;7.07;4.65;;;;;;;5.46;88.07;98528.06;4121081;28;20793;-89
2022/02/24 01:46:46;;;;;;;10.40;6.07;;;;;;;5.49;87.95;98533.13;4123913;28;20715;-88
2022/02/24 01:48:50;;;;;;;11.48;5.05;;;;;;;5.52;87.55;98521.78;4115400;28;20219;-89
2022/02/24 01:50:53;;;;;;;9.15;4.93;;;;;;;5.54;87.36;98520.81;4122010;28;20250;-87
2022/02/24 01:52:56;;;;;;;9.85;5.32;;;;;;;5.51;87.18;98514.94;4123442;28;20207;-88
2022/02/24 01:54:59;;;;;;;11.25;5.28;;;;;;;5.53;87.56;98516.53;4121441;28;20245;-86
2022/02/24 01:57:03;;;;;;;6.57;4.90;;;;;;;5.52;87.01;98516.59;4108331;28;20209;-85
2022/02/24 01:59:06;;;;;;;7.68;5.20;;;;;;;5.49;87.12;98509.84;4106446;28;20240;-87
2022/02/24 02:01:09;;;;;;;7.95;5.30;;;;;;;5.48;87.08;98507.31;4124598;28;20605;-86
2022/02/24 02:03:14;;;;;;;8.20;4.88;;;;;;;5.50;87.49;98492.56;4118029;28;20649;-86
2022/02/24 02:05:17;;;;;;;8.13;5.05;;;;;;;5.44;86.31;98480.75;4119481;28;20650;-88
2022/02/24 02:07:22;;;;;;;9.70;5.15;;;;;;;5.39;86.75;98484.41;4124994;28;20200;-88
2022/02/24 02:09:29;;;;;;;8.02;4.70;;;;;;;5.29;86.94;98489.13;4114230;28;20205;-88
2022/02/24 02:11:32;;;;;;;6.28;4.88;;;;;;;5.25;87.15;98484.16;4122898;28;20238;-86
2022/02/24 02:13:35;;;;;;;9.07;4.68;;;;;;;5.26;88.04;98478.94;4119852;28;21311;-88
2022/02/24 02:15:38;;;;;;;8.10;4.70;;;;;;;5.26;87.98;98473.75;4187840;28;20914;-86
2022/02/24 02:17:41;;;;;;;6.95;4.45;;;;;;;5.31;87.73;98476.16;4122495;28;20212;-87
2022/02/24 02:19:45;;;;;;;6.22;4.50;;;;;;;5.30;87.58;98480.47;4122486;28;20779;-84
2022/02/24 02:21:50;;;;;;;7.10;5.00;;;;;;;5.30;87.04;98464.13;4127927;28;20226;-87
2022/02/24 02:23:53;;;;;;;10.43;5.45;;;;;;;5.26;87.41;98463.41;4121988;28;20212;-82
2022/02/24 02:25:56;;;;;;;10.00;5.38;;;;;;;5.27;87.45;98456.50;4123400;28;20238;-88
2022/02/24 02:28:00;;;;;;;10.60;5.35;;;;;;;5.31;88.66;98455.47;4122343;28;20568;-87
2022/02/24 02:30:04;;;;;;;7.65;5.00;;;;;;;5.36;87.80;98456.09;4121024;28;20205;-87
2022/02/24 02:32:08;;;;;;;10.10;5.53;;;;;;;5.39;87.99;98443.06;4122434;28;20232;-87
2022/02/24 02:34:13;;;;;;;6.43;5.00;;;;;;;5.40;88.36;98443.00;4123738;28;20219;-86
2022/02/24 02:36:16;;;;;;;8.60;5.22;;;;;;;5.45;87.92;98442.78;4103857;28;20216;-87
2022/02/24 02:38:21;;;;;;;9.32;5.45;;;;;;;5.50;88.04;98439.09;4119913;28;20270;-87
2022/02/24 02:40:25;;;;;;;8.93;5.13;;;;;;;5.52;88.35;98442.47;4120554;28;20234;-88
2022/02/24 02:42:28;;;;;;;7.82;5.45;;;;;;;5.58;88.74;98436.16;4123677;28;20222;-88
2022/02/24 02:44:31;;;;;;;8.88;5.40;;;;;;;5.61;88.00;98435.16;4121757;28;20257;-87
2022/02/24 02:46:34;;;;;;;7.00;4.43;;;;;;;5.64;88.51;98439.34;4124888;28;20223;-88
2022/02/24 02:48:37;;;;;;;8.98;5.80;;;;;;;5.65;88.17;98435.84;4127521;28;20597;-88
2022/02/24 02:50:40;;;;;;;9.15;6.10;;;;;;;5.63;88.03;98432.50;4122112;28;20213;-84
2022/02/24 02:52:45;;;;;;;14.98;6.55;;;;;;;5.61;88.23;98431.72;4136984;28;20267;-88
2022/02/24 02:54:52;;;;;;;11.30;6.45;;;;;;;5.62;88.26;98425.63;4103168;28;20211;-87
2022/02/24 02:56:55;;;;;;;10.60;6.68;;;;;;;5.60;88.10;98421.44;4126905;28;20219;-87
2022/02/24 02:58:58;;;;;;;11.25;6.85;;;;;;;5.59;88.05;98419.75;4130631;28;20330;-87
2022/02/24 03:01:01;;;;;;;10.90;6.50;;;;;;;5.56;87.69;98415.53;4122109;28;20234;-87
2022/02/24 03:03:04;;;;;;;10.43;6.10;;;;;;;5.54;87.45;98413.94;4108760;28;20234;-85
2022/02/24 03:05:08;;;;;;;8.13;5.60;;;;;;;5.55;87.39;98418.19;4122572;28;20223;-89
2022/02/24 03:07:11;;;;;;;9.98;5.45;;;;;;;5.55;87.10;98410.44;4123624;28;20208;-83
2022/02/24 03:09:14;;;;;;;9.57;5.88;;;;;;;5.53;87.99;98407.91;4120275;28;20658;-88
2022/02/24 03:11:19;;;;;;;9.75;5.45;;;;;;;5.53;87.61;98397.56;4100614;28;20205;-87
2022/02/24 03:13:28;;;;;;;9.43;6.32;;;;;;;5.55;87.87;98393.19;4120636;28;20308;-87
2022/02/24 03:15:31;;;;;;;10.32;6.20;;;;;;;5.48;87.61;98403.88;4120368;28;20203;-87
2022/02/24 03:17:34;;;;;;;7.90;5.47;;;;;;;5.46;87.46;98398.78;4118641;28;20206;-88
2022/02/24 03:19:37;;;;;;;9.00;5.55;;;;;;;5.49;87.72;98390.88;4120218;28;20288;-87
2022/02/24 03:21:40;;;;;;;7.47;5.65;;;;;;;5.48;88.15;98381.44;4124270;28;20327;-86
2022/02/24 03:23:43;;;;;;;8.07;5.10;;;;;;;5.50;88.72;98381.34;4117988;28;20208;-84
2022/02/24 03:25:46;;;;;;;9.90;5.53;;;;;;;5.53;87.77;98387.22;4119086;28;20215;-86
2022/02/24 03:27:50;;;;;;;8.57;5.80;;;;;;;5.52;88.26;98382.97;4122059;28;20253;-86
2022/02/24 03:29:54;;;;;;;11.32;5.28;;;;;;;5.54;88.38;98378.56;4124028;28;20235;-86
2022/02/24 03:31:57;;;;;;;10.18;5.68;;;;;;;5.54;87.66;98385.50;4108526;28;20289;-88
2022/02/24 03:34:00;;;;;;;8.63;5.38;;;;;;;5.52;88.29;98376.94;4121559;28;20234;-87
2022/02/24 03:36:03;;;;;;;10.73;5.38;;;;;;;5.51;87.55;98375.28;4138651;28;20214;-88
2022/02/24 03:38:06;;;;;;;10.10;5.55;;;;;;;5.51;87.79;98367.53;4124447;28;20223;-87
2022/02/24 03:40:11;;;;;;;11.30;5.60;;;;;;;5.45;87.72;98373.81;4125844;28;20806;-88
2022/02/24 03:42:14;;;;;;;11.63;5.85;;;;;;;5.43;87.72;98367.88;4116624;28;20224;-86
2022/02/24 03:44:19;;;;;;;12.13;5.88;;;;;;;5.43;88.83;98370.47;4128465;28;20214;-88
2022/02/24 03:46:22;;;;;;;8.23;5.50;;;;;;;5.45;88.80;98366.03;4126341;28;20212;-89
2022/02/24 03:48:25;;;;;;;10.55;6.35;;;;;;;5.47;88.54;98373.75;4121937;28;20210;-87
2022/02/24 03:50:28;;;;;;;10.82;6.10;;;;;;;5.48;89.02;98365.91;4124720;28;20238;-87
2022/02/24 03:52:31;;;;;;;8.23;5.53;;;;;;;5.49;88.06;98367.59;4123121;28;20786;-88
2022/02/24 03:54:35;;;;;;;8.93;5.57;;;;;;;5.52;87.71;98366.59;4123709;28;20303;-85
2022/02/24 03:56:39;;;;;;;9.80;5.40;;;;;;;5.54;88.24;98359.66;4104734;28;20206;-87
2022/02/24 03:58:42;;;;;;;7.40;5.50;;;;;;;5.58;87.88;98363.75;4125003;28;20295;-86
2022/02/24 04:00:46;;;;;;;9.35;6.30;;;;;;;5.57;88.58;98364.69;4126122;28;20232;-88
2022/02/24 04:02:55;;;;;;;11.32;6.15;;;;;;;5.59;88.88;98362.84;4123269;28;20762;-87
2022/02/24 04:05:00;;;;;;;9.10;5.25;;;;;;;5.60;87.84;98366.19;4104271;28;20205;-85
2022/02/24 04:07:04;;;;;;;11.43;5.35;;;;;;;5.61;88.31;98356.72;4119328;28;20211;-87
2022/02/24 04:09:07;;;;;;;11.10;5.65;;;;;;;5.64;87.80;98356.59;4120215;28;20212;-88
2022/02/24 04:11:10;;;;;;;11.13;5.45;;;;;;;5.63;88.24;98352.31;4121746;28;20207;-87
2022/02/24 04:13:13;;;;;;;8.00;5.25;;;;;;;5.63;88.08;98345.38;4121691;28;20583;-86
2022/02/24 04:15:18;;;;;;;11.82;5.60;;;;;;;5.63;88.17;98344.53;4123435;28;20801;-88
2022/02/24 04:17:22;;;;;;;7.72;5.53;;;;;;;5.64;88.74;98335.88;4135671;28;20255;-87
2022/02/24 04:19:25;;;;;;;8.73;5.10;;;;;;;5.63;88.45;98329.03;4117130;28;20231;-89
2022/02/24 04:21:28;;;;;;;10.55;6.00;;;;;;;5.62;88.72;98328.19;4118770;28;20231;-87
2022/02/24 04:23:32;;;;;;;7.65;5.55;;;;;;;5.62;88.18;98322.16;4103640;28;20299;-87
2022/02/24 04:25:35;;;;;;;13.13;6.72;;;;;;;5.64;89.02;98328.13;4124575;28;20243;-88
2022/02/24 04:27:46;;;;;;;10.18;5.60;;;;;;;5.66;88.94;98324.53;4119189;28;20227;-87
2022/02/24 04:29:50;;;;;;;7.35;5.50;;;;;;;5.68;88.33;98316.72;4104314;28;20647;-87
2022/02/24 04:31:53;;;;;;;8.45;5.82;;;;;;;5.69;88.38;98318.41;4117227;28;20240;-89
2022/02/24 04:33:58;;;;;;;9.52;5.63;;;;;;;5.69;87.92;98315.81;4123254;28;20211;-87
2022/02/24 04:36:01;;;;;;;11.45;5.70;;;;;;;5.69;88.21;98321.00;4120420;28;20206;-87
2022/02/24 04:38:04;;;;;;;7.80;5.60;;;;;;;5.70;88.63;98314.91;4122162;28;20299;-83
2022/02/24 04:40:09;;;;;;;9.25;6.22;;;;;;;5.70;88.92;98320.91;4120571;28;20210;-88
2022/02/24 04:42:12;;;;;;;9.57;5.30;;;;;;;5.74;88.14;98313.88;4119379;28;20261;-88
2022/02/24 04:44:15;;;;;;;9.60;5.30;;;;;;;5.74;88.13;98316.47;4120229;28;20213;-88
2022/02/24 04:46:18;;;;;;;7.82;5.88;;;;;;;5.73;88.18;98319.94;4109043;28;20216;-88
2022/02/24 04:48:23;;;;;;;10.88;6.18;;;;;;;5.74;88.58;98316.47;4120653;28;20204;-87
2022/02/24 04:50:30;;;;;;;8.73;5.57;;;;;;;5.74;88.54;98314.75;4121572;28;20215;-87
2022/02/24 04:52:35;;;;;;;9.00;5.32;;;;;;;5.72;88.01;98318.25;4121333;28;20211;-86
2022/02/24 04:54:38;;;;;;;10.07;6.03;;;;;;;5.68;88.88;98306.38;4103156;28;20213;-88
2022/02/24 04:56:41;;;;;;;9.23;5.80;;;;;;;5.68;88.07;98306.38;4122325;28;20215;-87
2022/02/24 04:58:44;;;;;;;9.65;6.13;;;;;;;5.66;88.95;98298.69;4120520;28;21415;-88
2022/02/24 05:00:48;;;;;;;8.68;4.93;;;;;;;5.65;88.67;98297.03;4121844;28;20204;-87
2022/02/24 05:02:54;;;;;;;9.88;5.47;;;;;;;5.66;88.02;98296.09;4124316;28;20231;-88
2022/02/24 05:04:57;;;;;;;7.22;4.97;;;;;;;5.67;88.07;98294.38;4119728;28;20207;-86
2022/02/24 05:07:01;;;;;;;9.85;5.40;;;;;;;5.65;87.83;98293.56;4123697;28;20304;-87
2022/02/24 05:09:04;;;;;;;11.93;5.53;;;;;;;5.63;87.91;98282.47;4120868;28;20660;-87
2022/02/24 05:11:07;;;;;;;7.70;5.35;;;;;;;5.62;87.81;98285.94;4121284;28;20710;-88
2022/02/24 05:13:11;;;;;;;8.57;5.28;;;;;;;5.60;87.58;98280.84;4120334;28;20276;-86
2022/02/24 05:15:15;;;;;;;9.43;5.65;;;;;;;5.59;87.63;98275.75;4121945;28;20811;-88
2022/02/24 05:17:18;;;;;;;10.80;5.93;;;;;;;5.60;88.00;98274.03;4107514;28;20238;-87
2022/02/24 05:19:21;;;;;;;7.68;5.47;;;;;;;5.54;87.80;98272.53;4119026;28;20275;-88
2022/02/24 05:21:24;;;;;;;7.90;5.50;;;;;;;5.56;86.98;98275.06;4121628;28;20622;-87
2022/02/24 05:23:28;;;;;;;8.15;5.35;;;;;;;5.53;87.12;98254.50;4119106;28;20661;-88
2022/02/24 05:25:34;;;;;;;9.93;5.30;;;;;;;5.53;87.27;98262.25;4122849;28;20207;-86
2022/02/24 05:27:38;;;;;;;7.40;5.10;;;;;;;5.46;87.70;98243.63;4119344;28;20207;-88
2022/02/24 05:29:41;;;;;;;11.95;6.22;;;;;;;5.46;88.01;98237.59;4121482;28;20208;-88
2022/02/24 05:31:44;;;;;;;6.60;5.18;;;;;;;5.46;88.22;98233.28;4121529;28;20236;-86
2022/02/24 05:33:47;;;;;;;8.52;5.85;;;;;;;5.44;87.11;98235.09;4119009;28;20205;-88
2022/02/24 05:35:50;;;;;;;10.75;5.93;;;;;;;5.43;87.44;98230.81;4119306;28;20208;-88
2022/02/24 05:37:53;;;;;;;12.85;5.70;;;;;;;5.40;87.03;98228.38;4118150;28;20205;-88
2022/02/24 05:39:58;;;;;;;8.85;5.65;;;;;;;5.39;87.53;98231.03;4117336;28;20243;-88
2022/02/24 05:42:01;;;;;;;8.05;6.05;;;;;;;5.36;87.21;98226.00;4121140;28;20832;-86
2022/02/24 05:44:05;;;;;;;11.20;6.47;;;;;;;5.34;87.65;98227.81;4122549;28;20215;-88
2022/02/24 05:46:08;;;;;;;12.70;6.20;;;;;;;5.35;87.03;98232.06;4127829;28;20214;-87
2022/02/24 05:48:11;;;;;;;11.93;6.40;;;;;;;5.35;88.70;98237.25;4119255;28;20207;-88
2022/02/24 05:50:14;;;;;;;11.48;7.40;;;;;;;5.36;88.34;98244.09;4122273;28;20213;-86
2022/02/24 05:52:17;;;;;;;12.65;7.55;;;;;;;5.36;87.84;98241.50;4122421;28;20649;-88
2022/02/24 05:54:21;;;;;;;12.82;7.72;;;;;;;5.34;87.60;98233.00;4128538;28;20273;-87
2022/02/24 05:56:27;;;;;;;12.18;8.25;;;;;;;5.31;88.03;98244.31;4119624;28;20211;-87
2022/02/24 05:58:30;;;;;;;11.35;7.47;;;;;;;5.29;88.21;98237.50;4120939;28;20314;-88
2022/02/24 06:00:34;;;;;;;12.98;7.43;;;;;;;5.26;87.60;98237.66;4116357;28;20262;-87
2022/02/24 06:02:37;;;;;;;10.70;6.78;;;;;;;5.26;88.34;98235.06;4117288;28;20248;-88
2022/02/24 06:04:40;;;;;;;11.88;7.13;;;;;;;5.25;87.52;98228.25;4114458;28;20215;-88
2022/02/24 06:06:43;;;;;;;11.23;7.63;;;;;;;5.24;87.43;98227.38;4121911;28;20265;-87
2022/02/24 06:08:47;;;;;;;13.95;7.47;;;;;;;5.25;88.14;98225.66;4124471;28;20198;-87
2022/02/24 06:10:50;;;;;;;10.20;7.32;;;;;;;5.27;88.32;98223.84;4121273;28;20205;-87
2022/02/24 06:12:57;;;;;;;13.85;7.55;;;;;;;5.26;88.41;98227.31;4125119;28;20206;-89
2022/02/24 06:15:00;;;;;;;10.02;7.50;;;;;;;5.30;88.20;98229.69;4121761;28;20215;-87
2022/02/24 06:17:04;;;;;;;10.20;7.13;;;;;;;5.26;87.95;98230.75;4122352;28;20211;-89
2022/02/24 06:19:07;;;;;;;10.02;7.20;;;;;;;5.25;88.37;98230.84;4121831;28;21073;-92
2022/02/24 06:21:12;;;;;;;10.40;7.50;;;;;;;5.27;88.25;98231.59;4126084;28;20218;-89
2022/02/24 06:23:15;;;;;;;13.45;7.72;;;;;;;5.21;87.91;98232.69;4109250;28;20759;-89
2022/02/24 06:25:18;;;;;;;15.48;9.55;;;;;;;5.19;88.10;98224.19;4131851;28;20273;-87
2022/02/24 06:27:21;;;;;;;12.88;8.00;;;;;;;5.22;88.41;98228.38;4126955;28;20212;-88
2022/02/24 06:29:26;;;;;;;16.00;9.20;;;;;;;5.23;88.62;98228.31;4120006;28;20244;-88
2022/02/24 06:31:34;;;;;;;20.25;12.38;;;;;;;5.23;87.82;98230.91;4102251;28;20838;-88
2022/02/24 06:33:37;;;;;;;14.50;9.65;;;;;;;5.25;88.33;98228.25;4100961;28;20220;-88
2022/02/24 06:35:40;;;;;;;14.38;8.57;;;;;;;5.26;88.09;98217.84;4128705;28;20547;-87
2022/02/24 06:37:44;;;;;;;14.40;8.85;;;;;;;5.30;88.69;98228.88;4124091;28;20249;-87
2022/02/24 06:39:47;;;;;;;12.07;7.68;;;;;;;5.31;88.48;98226.22;4122771;28;20291;-87
2022/02/24 06:41:51;;;;;;;17.73;9.18;;;;;;;5.34;87.95;98231.25;4125253;28;20253;-87
2022/02/24 06:43:55;;;;;;;11.70;8.30;;;;;;;5.37;88.69;98232.84;4124864;28;20639;-87
2022/02/24 06:46:00;;;;;;;11.82;8.65;;;;;;;5.39;88.53;98234.44;4120786;28;20218;-87
2022/02/24 06:48:03;;;;;;;15.27;9.50;;;;;;;5.43;87.98;98230.00;4124103;28;20217;-87
2022/02/24 06:50:08;;;;;;;18.85;11.85;;;;;;;5.43;88.12;98217.06;4129772;28;20287;-89
2022/02/24 06:52:11;;;;;;;17.17;11.38;;;;;;;5.43;88.41;98215.31;4128092;28;20216;-88
2022/02/24 06:54:14;;;;;;;16.75;10.73;;;;;;;5.45;87.96;98216.06;4132998;28;20215;-87
2022/02/24 06:56:17;;;;;;;18.98;9.20;;;;;;;5.47;87.54;98214.25;4134714;28;20206;-88
2022/02/24 06:58:20;;;;;;;13.15;9.88;;;;;;;5.50;88.24;98208.94;4131540;28;20298;-89
2022/02/24 07:00:23;;;;;;;13.02;8.55;;;;;;;5.55;88.63;98214.75;4108546;28;20215;-88
2022/02/24 07:02:28;;;;;;;11.95;7.90;;;;;;;5.60;88.21;98205.00;4113550;28;20259;-87
2022/02/24 07:04:31;;;;;;;11.30;7.65;;;;;;;5.61;87.92;98212.69;4132380;28;20202;-86
2022/02/24 07:06:35;;;;;;;11.35;7.22;;;;;;;5.64;88.10;98209.16;4106699;28;20666;-88
2022/02/24 07:08:40;;;;;;;13.30;7.70;;;;;;;5.68;87.60;98213.25;4119689;28;20882;-88
2022/02/24 07:10:43;;;;;;;13.63;8.15;;;;;;;5.70;88.15;98212.28;4117035;28;20257;-88
2022/02/24 07:12:46;;;;;;;9.55;7.40;;;;;;;5.74;88.35;98207.81;4126666;28;20564;-88
2022/02/24 07:14:49;;;;;;;10.85;7.03;;;;;;;5.76;88.28;98217.19;4125154;28;20226;-88
2022/02/24 07:16:53;;;;;;;12.95;8.05;;;;;;;5.81;87.79;98209.22;4132759;28;20263;-87
2022/02/24 07:18:58;;;;;;;9.77;7.78;;;;;;;5.84;87.71;98201.31;4130068;28;20629;-88
2022/02/24 07:21:01;;;;;;;11.32;7.78;;;;;;;5.87;88.13;98209.75;4128122;28;20584;-89
2022/02/24 07:23:04;;;;;;;10.35;7.47;;;;;;;5.88;87.99;98210.56;4131819;28;20677;-89
2022/02/24 07:25:08;;;;;;;11.27;7.85;;;;;;;5.91;87.71;98206.09;4126391;28;20197;-87
2022/02/24 07:27:11;;;;;;;12.45;7.50;;;;;;;5.94;87.13;98202.50;4133083;28;20212;-89
2022/02/24 07:29:15;;;;;;;10.93;6.80;;;;;;;5.97;87.46;98200.63;4131730;28;20616;-90
2022/02/24 07:31:18;;;;;;;8.55;6.68;;;;;;;6.01;87.47;98193.56;4127875;28;20664;-90
2022/02/24 07:33:21;;;;;;;13.63;8.43;;;;;;;6.07;87.29;98193.25;4111921;28;20220;-90
2022/02/24 07:35:26;;;;;;;12.73;7.05;;;;;;;6.11;87.52;98187.84;4130969;28;20206;-89
2022/02/24 07:37:29;;;;;;;11.23;7.65;;;;;;;6.16;86.73;98189.31;4124339;28;20252;-89
2022/02/24 07:39:32;;;;;;;12.98;7.72;;;;;;;6.21;86.56;98189.09;4134269;28;20214;-89
2022/02/24 07:41:35;;;;;;;11.20;6.72;;;;;;;6.29;86.78;98185.19;4135356;28;20246;-89
2022/02/24 07:43:38;;;;;;;12.48;7.80;;;;;;;6.38;86.50;98178.72;4131320;28;20217;-91
2022/02/24 07:45:41;;;;;;;12.40;7.80;;;;;;;6.48;86.49;98178.19;4130193;28;20242;-88
2022/02/24 07:47:44;;;;;;;10.45;6.78;;;;;;;6.53;87.06;98180.53;4125767;28;20303;-88
2022/02/24 07:49:50;;;;;;;11.80;7.22;;;;;;;6.56;86.49;98181.22;4119348;28;20211;-84
2022/02/24 07:51:54;;;;;;;13.02;7.45;;;;;;;6.67;86.88;98179.72;4119523;28;20743;-88
2022/02/24 07:53:57;;;;;;;9.98;6.47;;;;;;;6.78;86.01;98171.41;4125855;28;20208;-87
2022/02/24 07:56:00;;;;;;;11.45;6.80;;;;;;;6.86;85.63;98166.66;4122011;28;20208;-86
2022/02/24 07:58:04;;;;;;;12.40;7.25;;;;;;;6.99;85.61;98165.94;4126900;28;20249;-87
2022/02/24 08:00:08;;;;;;;10.35;6.40;;;;;;;7.16;85.75;98158.09;4119652;28;20665;-89
2022/02/24 08:02:11;;;;;;;13.55;6.97;;;;;;;7.19;84.77;98166.53;4116407;28;20253;-84
2022/02/24 08:04:16;;;;;;;11.40;6.95;;;;;;;7.24;84.26;98155.91;4123548;28;20306;-87
2022/02/24 08:06:19;;;;;;;11.32;6.50;;;;;;;7.35;85.09;98159.63;4106604;28;20334;-87
2022/02/24 08:08:24;;;;;;;10.15;6.82;;;;;;;7.48;84.74;98164.03;4127095;28;20209;-87
2022/02/24 08:10:27;;;;;;;14.70;7.20;;;;;;;7.64;84.69;98164.88;4124542;28;20203;-88
2022/02/24 08:12:43;;;;;;;11.60;6.95;;;;;;;7.72;83.78;98165.25;4124690;28;20668;-89
2022/02/24 08:14:46;;;;;;;13.32;6.60;;;;;;;7.79;83.31;98160.59;4111481;28;20657;-88
2022/02/24 08:16:50;;;;;;;11.48;7.28;;;;;;;7.76;84.06;98155.56;4131810;28;20573;-89
2022/02/24 08:18:55;;;;;;;15.85;7.03;;;;;;;7.77;83.22;98158.09;4106501;28;20267;-87
2022/02/24 08:20:58;;;;;;;11.02;6.75;;;;;;;7.97;83.27;98155.19;4123835;28;20821;-87
2022/02/24 08:23:03;;;;;;;9.35;6.40;;;;;;;8.12;82.76;98149.97;4127814;28;20221;-86
2022/02/24 08:25:11;;;;;;;9.55;7.13;;;;;;;8.36;82.69;98153.75;4122937;28;20318;-86
2022/02/24 08:27:14;;;;;;;11.80;7.68;;;;;;;8.57;83.17;98148.13;4118694;28;20261;-87
2022/02/24 08:29:17;;;;;;;14.10;9.05;;;;;;;8.75;81.13;98156.56;4118839;28;20275;-87
2022/02/24 08:31:20;;;;;;;11.60;8.27;;;;;;;8.86;82.43;98154.19;4119823;28;21126;-87
2022/02/24 08:33:23;;;;;;;12.27;8.80;;;;;;;8.92;83.29;98148.59;4120561;28;20555;-88
2022/02/24 08:35:26;;;;;;;14.25;9.20;;;;;;;9.13;82.75;98145.53;4122517;28;20636;-88
2022/02/24 08:37:30;;;;;;;12.30;8.15;;;;;;;9.26;82.95;98144.66;4123734;28;20208;-87
2022/02/24 08:39:33;;;;;;;13.43;8.48;;;;;;;9.49;82.13;98141.47;4119971;28;20212;-86
2022/02/24 08:41:40;;;;;;;11.52;7.65;;;;;;;9.72;80.13;98133.84;4122868;28;20227;-88
2022/02/24 08:43:43;;;;;;;12.00;7.80;;;;;;;9.90;80.34;98130.88;4118249;28;20266;-85
2022/02/24 08:45:48;;;;;;;14.82;9.05;;;;;;;10.01;80.25;98133.66;4136981;28;20644;-88
2022/02/24 08:47:51;;;;;;;14.53;9.40;;;;;;;10.16;81.15;98124.81;4122320;28;20208;-87
2022/02/24 08:49:54;;;;;;;13.00;9.33;;;;;;;10.42;80.61;98124.75;4121235;28;20728;-88
2022/02/24 08:52:17;;;;;;;14.00;8.50;;;;;;;10.74;82.16;98128.63;4104203;28;20690;-86
2022/02/24 08:54:20;;;;;;;10.90;8.63;;;;;;;10.96;81.12;98120.97;4122278;28;20668;-88
2022/02/24 08:56:24;;;;;;;16.37;8.63;;;;;;;11.13;79.56;98121.50;4118041;28;20636;-88
2022/02/24 08:58:28;;;;;;;13.60;9.03;;;;;;;11.16;79.11;98115.22;4120456;28;20632;-88
2022/02/24 09:00:31;;;;;;;12.93;8.77;;;;;;;11.22;77.73;98114.81;4118663;28;20645;-87
2022/02/24 09:02:34;;;;;;;13.70;9.07;;;;;;;11.19;77.25;98110.63;4133430;28;20625;-86
2022/02/24 09:04:38;;;;;;;12.10;9.50;;;;;;;11.13;77.91;98111.06;4119484;28;21106;-87
2022/02/24 09:06:41;;;;;;;12.07;9.77;;;;;;;11.08;77.60;98104.47;4119866;28;20644;-84
2022/02/24 09:08:44;;;;;;;12.07;9.00;;;;;;;11.08;77.89;98102.72;4119498;28;20724;-87
2022/02/24 09:10:47;;;;;;;15.77;8.40;;;;;;;11.24;77.05;98105.91;4120420;28;20663;-87
2022/02/24 09:12:50;;;;;;;8.53;7.33;;;;;;;11.55;77.56;98101.03;4129919;28;21257;-87
2022/02/24 09:14:55;;;;;;;13.33;8.03;;;;;;;11.83;77.11;98098.06;4121543;28;20643;-87
2022/02/24 09:16:58;;;;;;;8.80;7.13;;;;;;;12.14;77.10;98095.72;4121180;28;20646;-88
2022/02/24 09:19:01;;;;;;;7.13;5.57;;;;;;;12.35;76.79;98100.16;4119556;28;21024;-86
2022/02/24 09:21:04;;;;;;;6.70;6.00;;;;;;;12.55;74.66;98093.44;4129306;28;21060;-88
2022/02/24 09:23:07;;;;;;;7.50;5.10;;;;;;;12.68;73.06;98083.69;4123043;28;20640;-89
2022/02/24 09:25:12;;;;;;;6.60;4.70;;;;;;;12.87;73.24;98080.41;4119359;28;20696;-88
2022/02/24 09:27:16;;;;;;;13.33;9.60;;;;;;;13.04;73.08;98082.53;4116915;28;20649;-89
2022/02/24 09:29:19;;;;;;;12.83;7.87;;;;;;;13.20;73.27;98078.59;4119029;28;20641;-89
2022/02/24 09:31:23;;;;;;;10.17;5.73;;;;;;;13.44;74.07;98073.19;4108142;28;20677;-89
2022/02/24 09:33:28;;;;;;;7.43;5.00;;;;;;;13.61;71.45;98072.69;4126678;28;20649;-89
2022/02/24 09:35:31;;;;;;;6.50;4.00;;;;;;;13.80;71.98;98071.91;4117868;28;20625;-88
2022/02/24 09:37:35;;;;;;;4.17;3.40;;;;;;;13.90;70.27;98061.50;4122995;28;20638;-90
2022/02/24 09:39:38;;;;;;;3.90;2.90;;;;;;;13.83;69.41;98068.19;4121700;28;20639;-89
2022/02/24 09:41:42;;;;;;;5.10;2.80;;;;;;;13.58;68.63;98067.69;4137213;28;20658;-88
2022/02/24 09:43:45;;;;;;;3.53;2.90;;;;;;;13.42;70.12;98056.78;4126782;28;20697;-86
2022/02/24 09:45:52;;;;;;;6.57;2.90;;;;;;;13.31;70.57;98054.19;4124986;28;21264;-90